createdAt,value
2023-05-04T00:00:54.639Z,27.88
2023-05-04T00:01:54.648Z,28.43
2023-05-04T00:02:54.757Z,27.44
2023-05-04T00:03:54.923Z,25.92
2023-05-04T00:04:54.740Z,26.63
2023-05-04T00:05:54.723Z,26.80
2023-05-04T00:06:54.758Z,25.32
2023-05-04T00:07:54.796Z,27.38
2023-05-04T00:08:54.797Z,26.41
2023-05-04T00:09:54.844Z,28.26
2023-05-04T00:10:54.847Z,27.03
2023-05-04T00:11:54.883Z,26.40
2023-05-04T00:12:54.958Z,26.00
2023-05-04T00:13:54.905Z,28.63
2023-05-04T00:14:54.960Z,26.09
2023-05-04T00:15:55.008Z,27.62
2023-05-04T00:16:54.974Z,25.39
2023-05-04T00:17:55.102Z,27.62
2023-05-04T00:18:55.078Z,28.63
2023-05-04T00:19:55.182Z,27.85
2023-05-04T00:20:55.104Z,28.29
2023-05-04T00:21:55.114Z,28.76
2023-05-04T00:22:55.143Z,29.52
2023-05-04T00:23:55.177Z,26.93
2023-05-04T00:24:55.305Z,25.00
2023-05-04T00:25:55.251Z,26.95
2023-05-04T00:26:55.256Z,26.51
2023-05-04T00:27:55.312Z,30.45
2023-05-04T00:28:55.273Z,27.56
2023-05-04T00:29:55.308Z,26.52
2023-05-04T00:30:55.339Z,28.47
2023-05-04T00:31:55.428Z,29.54
2023-05-04T00:32:55.427Z,29.50
2023-05-04T00:33:55.409Z,27.81
2023-05-04T00:34:55.465Z,28.22
2023-05-04T00:35:55.509Z,28.92
2023-05-04T00:36:55.504Z,27.63
2023-05-04T00:37:55.511Z,25.98
2023-05-04T00:38:55.548Z,26.65
2023-05-04T00:39:55.585Z,29.29
2023-05-04T00:40:55.589Z,26.23
2023-05-04T00:41:55.629Z,27.42
2023-05-04T00:42:55.653Z,28.62
2023-05-04T00:43:55.707Z,27.05
2023-05-04T00:44:55.732Z,26.92
2023-05-04T00:45:55.731Z,29.12
2023-05-04T00:46:55.843Z,27.87
2023-05-04T00:47:55.830Z,27.68
2023-05-04T00:48:55.847Z,27.75
2023-05-04T00:49:55.885Z,27.37
2023-05-04T00:50:55.885Z,26.74
2023-05-04T00:51:55.910Z,28.11
2023-05-04T00:52:55.934Z,27.25
2023-05-04T00:53:55.970Z,28.42
2023-05-04T00:54:55.984Z,29.13
2023-05-04T00:55:56.054Z,25.91
2023-05-04T00:56:56.056Z,28.54
2023-05-04T00:57:56.122Z,28.17
2023-05-04T00:58:56.124Z,27.06
2023-05-04T00:59:56.152Z,25.96
2023-05-04T01:00:56.262Z,26.28
2023-05-04T01:01:56.184Z,30.12
2023-05-04T01:02:56.269Z,26.92
2023-05-04T01:03:56.297Z,27.94
2023-05-04T01:04:56.270Z,26.84
2023-05-04T01:05:56.337Z,30.44
2023-05-04T01:06:56.347Z,27.47
2023-05-04T01:07:56.388Z,28.02
2023-05-04T01:08:56.381Z,27.67
2023-05-04T01:09:56.456Z,26.65
2023-05-04T01:10:56.446Z,27.66
2023-05-04T01:11:56.509Z,29.75
2023-05-04T01:12:56.532Z,26.47
2023-05-04T01:13:56.576Z,26.17
2023-05-04T01:14:56.576Z,27.80
2023-05-04T01:15:56.614Z,28.17
2023-05-04T01:16:56.737Z,25.50
2023-05-04T01:17:56.679Z,25.95
2023-05-04T01:18:56.732Z,27.05
2023-05-04T01:19:56.739Z,29.51
2023-05-04T01:20:56.781Z,30.55
2023-05-04T01:21:56.818Z,30.80
2023-05-04T01:22:56.804Z,29.82
2023-05-04T01:23:56.890Z,31.24
2023-05-04T01:24:56.901Z,31.94
2023-05-04T01:25:56.945Z,31.62
2023-05-04T01:26:56.962Z,30.28
2023-05-04T01:27:56.972Z,31.70
2023-05-04T01:28:57.020Z,32.27
2023-05-04T01:29:57.319Z,32.54
2023-05-04T01:30:57.120Z,31.58
2023-05-04T01:31:57.158Z,30.27
2023-05-04T01:32:57.183Z,30.72
2023-05-04T01:33:57.190Z,32.21
2023-05-04T01:34:57.246Z,32.05
2023-05-04T01:35:57.256Z,30.96
2023-05-04T01:36:57.274Z,30.49
2023-05-04T01:37:57.349Z,28.64
2023-05-04T01:38:57.450Z,29.79
2023-05-04T01:39:57.407Z,30.00
2023-05-04T01:40:57.410Z,31.22
2023-05-04T01:41:57.473Z,31.41
2023-05-04T01:42:57.499Z,27.40
2023-05-04T01:43:57.517Z,29.79
2023-05-04T01:44:57.534Z,28.95
2023-05-04T01:45:57.594Z,26.90
2023-05-04T01:46:57.654Z,28.64
2023-05-04T01:47:57.696Z,25.91
2023-05-04T01:48:57.669Z,27.93
2023-05-04T01:49:57.740Z,26.88
2023-05-04T01:50:57.768Z,28.13
2023-05-04T01:51:57.847Z,29.50
2023-05-04T01:52:57.858Z,27.19
2023-05-04T01:53:57.873Z,26.19
2023-05-04T01:54:57.935Z,26.89
2023-05-04T01:55:57.967Z,27.52
2023-05-04T01:56:58.482Z,27.70
2023-05-04T01:57:58.020Z,26.75
2023-05-04T01:58:58.044Z,27.26
2023-05-04T01:59:58.099Z,26.45
2023-05-04T02:00:58.127Z,27.82
2023-05-04T02:01:58.225Z,28.47
2023-05-04T02:02:58.298Z,28.40
2023-05-04T02:03:58.398Z,27.19
2023-05-04T02:04:58.236Z,27.05
2023-05-04T02:05:58.281Z,25.00
2023-05-04T02:06:58.316Z,28.18
2023-05-04T02:07:58.361Z,27.45
2023-05-04T02:08:58.357Z,28.19
2023-05-04T02:09:58.418Z,29.87
2023-05-04T02:10:58.428Z,27.30
2023-05-04T02:11:58.476Z,27.65
2023-05-04T02:12:58.538Z,30.73
2023-05-04T02:13:58.520Z,28.86
2023-05-04T02:14:58.564Z,27.78
2023-05-04T02:15:58.616Z,29.83
2023-05-04T02:16:58.631Z,29.43
2023-05-04T02:17:58.692Z,26.44
2023-05-04T02:18:58.683Z,27.51
2023-05-04T02:19:58.721Z,27.62
2023-05-04T02:20:58.729Z,27.98
2023-05-04T02:21:58.771Z,28.20
2023-05-04T02:22:58.790Z,26.90
2023-05-04T02:23:58.834Z,30.24
2023-05-04T02:24:58.881Z,27.29
2023-05-04T02:25:58.886Z,25.48
2023-05-04T02:26:58.939Z,26.49
2023-05-04T02:27:59.010Z,27.69
2023-05-04T02:28:58.987Z,28.55
2023-05-04T02:29:59.021Z,27.74
2023-05-04T02:30:59.048Z,29.26
2023-05-04T02:31:59.175Z,28.10
2023-05-04T02:32:59.132Z,31.15
2023-05-04T02:33:59.178Z,28.01
2023-05-04T02:34:59.212Z,28.64
2023-05-04T02:35:59.242Z,28.90
2023-05-04T02:36:59.282Z,29.38
2023-05-04T02:37:59.346Z,29.71
2023-05-04T02:38:59.353Z,26.69
2023-05-04T02:39:59.364Z,27.23
2023-05-04T02:40:59.406Z,27.12
2023-05-04T02:41:59.440Z,29.30
2023-05-04T02:42:59.455Z,27.35
2023-05-04T02:43:59.541Z,30.08
2023-05-04T02:44:59.594Z,29.16
2023-05-04T02:45:59.625Z,27.61
2023-05-04T02:46:59.641Z,27.77
2023-05-04T02:47:59.740Z,28.67
2023-05-04T02:48:59.672Z,28.14
2023-05-04T02:49:59.729Z,27.36
2023-05-04T02:50:59.747Z,28.56
2023-05-04T02:51:59.831Z,25.43
2023-05-04T02:52:59.817Z,28.56
2023-05-04T02:53:59.881Z,27.22
2023-05-04T02:54:59.911Z,25.25
2023-05-04T02:55:59.965Z,26.69
2023-05-04T02:57:00.025Z,28.84
2023-05-04T02:58:00.055Z,27.59
2023-05-04T02:59:00.130Z,29.05
2023-05-04T03:00:00.105Z,28.90
2023-05-04T03:01:00.288Z,29.77
2023-05-04T03:02:00.259Z,28.99
2023-05-04T03:03:00.344Z,28.92
2023-05-04T03:04:00.361Z,30.52
2023-05-04T03:05:00.341Z,28.01
2023-05-04T03:06:00.366Z,28.59
2023-05-04T03:07:00.437Z,29.14
2023-05-04T03:08:00.497Z,28.40
2023-05-04T03:09:00.537Z,29.04
2023-05-04T03:10:00.566Z,30.87
2023-05-04T03:11:00.618Z,28.37
2023-05-04T03:12:00.642Z,29.69
2023-05-04T03:13:00.717Z,29.32
2023-05-04T03:14:01.533Z,28.96
2023-05-04T03:15:00.779Z,26.94
2023-05-04T03:16:00.898Z,27.30
2023-05-04T03:17:00.883Z,27.49
2023-05-04T03:18:00.950Z,28.33
2023-05-04T03:19:00.938Z,29.54
2023-05-04T03:20:01.009Z,27.35
2023-05-04T03:21:01.029Z,28.34
2023-05-04T03:22:01.100Z,26.46
2023-05-04T03:23:01.105Z,28.69
2023-05-04T03:24:01.189Z,31.16
2023-05-04T03:25:01.168Z,30.34
2023-05-04T03:26:01.185Z,30.14
2023-05-04T03:27:01.289Z,30.76
2023-05-04T03:28:01.261Z,28.80
2023-05-04T03:29:01.342Z,30.58
2023-05-04T03:30:01.364Z,25.37
2023-05-04T03:31:01.439Z,30.65
2023-05-04T03:32:01.504Z,27.24
2023-05-04T03:33:01.515Z,29.37
2023-05-04T03:34:01.535Z,28.82
2023-05-04T03:35:03.386Z,27.95
2023-05-04T03:36:01.660Z,28.54
2023-05-04T03:37:03.586Z,28.89
2023-05-04T03:38:01.735Z,31.94
2023-05-04T03:39:01.752Z,29.65
2023-05-04T03:40:01.807Z,28.62
2023-05-04T03:41:01.853Z,30.74
2023-05-04T03:42:01.907Z,29.17
2023-05-04T03:43:01.930Z,28.38
2023-05-04T03:44:02.001Z,27.53
2023-05-04T03:45:04.103Z,29.88
2023-05-04T03:46:02.056Z,29.24
2023-05-04T03:47:02.132Z,28.95
2023-05-04T03:48:02.223Z,26.40
2023-05-04T03:49:02.187Z,29.46
2023-05-04T03:50:02.504Z,28.50
2023-05-04T03:51:02.319Z,27.30
2023-05-04T03:52:02.331Z,26.93
2023-05-04T03:53:02.365Z,28.75
2023-05-04T03:54:02.402Z,27.54
2023-05-04T03:55:02.481Z,28.13
2023-05-04T03:56:02.529Z,26.65
2023-05-04T03:57:02.575Z,29.20
2023-05-04T03:58:02.607Z,28.60
2023-05-04T03:59:02.640Z,30.60
2023-05-04T04:00:02.844Z,27.30
2023-05-04T04:01:02.744Z,25.00
2023-05-04T04:02:02.811Z,26.55
2023-05-04T04:03:02.929Z,29.47
2023-05-04T04:04:03.035Z,27.01
2023-05-04T04:05:02.915Z,28.90
2023-05-04T04:06:02.979Z,29.11
2023-05-04T04:07:03.035Z,29.36
2023-05-04T04:08:03.089Z,30.15
2023-05-04T04:09:03.116Z,28.44
2023-05-04T04:10:03.360Z,30.04
2023-05-04T04:11:03.234Z,28.07
2023-05-04T04:12:03.269Z,27.89
2023-05-04T04:13:03.375Z,29.31
2023-05-04T04:14:03.364Z,28.40
2023-05-04T04:15:03.447Z,28.54
2023-05-04T04:16:03.508Z,29.96
2023-05-04T04:17:03.546Z,28.34
2023-05-04T04:18:03.620Z,27.96
2023-05-04T04:19:03.639Z,27.70
2023-05-04T04:20:03.965Z,27.29
2023-05-04T04:21:03.735Z,27.59
2023-05-04T04:22:03.768Z,28.79
2023-05-04T04:23:03.856Z,26.95
2023-05-04T04:24:03.874Z,30.96
2023-05-04T04:25:03.916Z,28.52
2023-05-04T04:26:03.989Z,27.29
2023-05-04T04:27:04.024Z,31.10
2023-05-04T04:28:04.100Z,29.38
2023-05-04T04:29:04.153Z,28.61
2023-05-04T04:30:04.477Z,30.95
2023-05-04T04:31:04.293Z,27.02
2023-05-04T04:32:04.315Z,29.43
2023-05-04T04:33:04.395Z,26.70
2023-05-04T04:34:04.420Z,28.58
2023-05-04T04:35:04.445Z,27.83
2023-05-04T04:36:04.613Z,28.42
2023-05-04T04:37:04.610Z,27.50
2023-05-04T04:38:04.628Z,29.66
2023-05-04T04:39:04.698Z,27.34
2023-05-04T04:40:05.018Z,27.37
2023-05-04T04:41:04.809Z,28.59
2023-05-04T04:42:04.903Z,28.61
2023-05-04T04:43:04.993Z,27.59
2023-05-04T04:44:05.028Z,25.00
2023-05-04T04:45:05.037Z,28.54
2023-05-04T04:46:05.138Z,25.58
2023-05-04T04:47:05.294Z,28.09
2023-05-04T04:48:05.281Z,28.55
2023-05-04T04:49:05.300Z,29.74
2023-05-04T04:50:05.637Z,27.64
2023-05-04T04:51:05.399Z,27.34
2023-05-04T04:52:05.473Z,29.54
2023-05-04T04:53:05.535Z,26.19
2023-05-04T04:54:05.532Z,26.40
2023-05-04T04:55:05.629Z,27.91
2023-05-04T04:56:05.660Z,26.96
2023-05-04T04:57:05.738Z,27.94
2023-05-04T04:58:05.785Z,28.17
2023-05-04T04:59:05.847Z,27.55
2023-05-04T05:00:06.306Z,28.85
2023-05-04T05:01:06.002Z,29.46
2023-05-04T05:02:06.017Z,27.68
2023-05-04T05:03:06.110Z,27.10
2023-05-04T05:04:06.130Z,30.93
2023-05-04T05:05:06.304Z,28.26
2023-05-04T05:06:06.216Z,27.66
2023-05-04T05:07:06.304Z,27.87
2023-05-04T05:08:06.387Z,29.44
2023-05-04T05:09:06.387Z,26.76
2023-05-04T05:10:06.584Z,29.28
2023-05-04T05:11:06.499Z,28.48
2023-05-04T05:12:06.585Z,29.66
2023-05-04T05:13:06.647Z,29.16
2023-05-04T05:14:06.625Z,28.99
2023-05-04T05:15:06.691Z,30.26
2023-05-04T05:16:06.784Z,29.23
2023-05-04T05:17:06.842Z,28.30
2023-05-04T05:18:07.071Z,29.17
2023-05-04T05:19:06.889Z,29.68
2023-05-04T05:20:07.038Z,26.50
2023-05-04T05:21:07.010Z,31.24
2023-05-04T05:22:07.065Z,30.01
2023-05-04T05:23:07.135Z,30.38
2023-05-04T05:24:07.249Z,30.04
2023-05-04T05:25:07.228Z,30.12
2023-05-04T05:26:07.292Z,30.16
2023-05-04T05:27:07.324Z,27.26
2023-05-04T05:28:07.382Z,30.02
2023-05-04T05:29:07.434Z,28.37
2023-05-04T05:30:07.742Z,27.43
2023-05-04T05:31:07.681Z,27.79
2023-05-04T05:32:07.588Z,32.30
2023-05-04T05:33:07.697Z,27.19
2023-05-04T05:34:07.828Z,30.10
2023-05-04T05:35:07.813Z,30.76
2023-05-04T05:36:07.862Z,29.17
2023-05-04T05:37:07.917Z,32.12
2023-05-04T05:38:07.958Z,32.80
2023-05-04T05:39:08.002Z,35.08
2023-05-04T05:40:08.263Z,33.93
2023-05-04T05:41:08.119Z,33.07
2023-05-04T05:42:08.624Z,34.36
2023-05-04T05:43:08.232Z,30.92
2023-05-04T05:44:08.262Z,32.95
2023-05-04T05:45:08.343Z,34.13
2023-05-04T05:46:08.436Z,30.53
2023-05-04T05:47:08.452Z,29.47
2023-05-04T05:48:08.617Z,32.38
2023-05-04T05:49:08.632Z,29.39
2023-05-04T05:50:08.739Z,26.99
2023-05-04T05:51:08.642Z,30.61
2023-05-04T05:52:08.757Z,37.32
2023-05-04T05:53:08.685Z,40.61
2023-05-04T05:54:08.684Z,44.70
2023-05-04T05:55:08.692Z,50.04
2023-05-04T05:56:08.761Z,49.96
2023-05-04T05:57:09.123Z,53.46
2023-05-04T05:58:08.836Z,61.53
2023-05-04T05:59:08.863Z,58.90
2023-05-04T06:00:08.932Z,61.81
2023-05-04T06:01:09.018Z,63.01
2023-05-04T06:02:09.116Z,68.06
2023-05-04T06:03:09.196Z,69.78
2023-05-04T06:04:09.289Z,74.78
2023-05-04T06:05:09.291Z,78.27
2023-05-04T06:06:09.311Z,80.88
2023-05-04T06:07:09.356Z,87.18
2023-05-04T06:08:09.391Z,88.49
2023-05-04T06:09:09.478Z,91.03
2023-05-04T06:10:09.486Z,97.43
2023-05-04T06:11:09.685Z,99.75
2023-05-04T06:12:09.591Z,104.37
2023-05-04T06:13:09.664Z,107.32
2023-05-04T06:14:09.651Z,109.95
2023-05-04T06:15:09.663Z,115.83
2023-05-04T06:16:09.761Z,119.40
2023-05-04T06:17:09.768Z,122.91
2023-05-04T06:18:09.811Z,125.77
2023-05-04T06:19:09.825Z,127.12
2023-05-04T06:20:09.856Z,129.89
2023-05-04T06:21:09.880Z,135.73
2023-05-04T06:22:09.909Z,140.08
2023-05-04T06:23:09.980Z,144.84
2023-05-04T06:24:09.977Z,146.92
2023-05-04T06:25:10.004Z,151.12
2023-05-04T06:26:10.030Z,153.33
2023-05-04T06:27:10.037Z,157.99
2023-05-04T06:28:10.082Z,159.17
2023-05-04T06:29:10.080Z,164.59
2023-05-04T06:30:10.096Z,168.13
2023-05-04T06:31:10.205Z,171.86
2023-05-04T06:32:10.212Z,175.64
2023-05-04T06:33:10.224Z,178.86
2023-05-04T06:34:10.186Z,184.56
2023-05-04T06:35:10.229Z,187.05
2023-05-04T06:36:10.219Z,189.11
2023-05-04T06:37:10.265Z,191.41
2023-05-04T06:38:10.280Z,195.43
2023-05-04T06:39:10.334Z,195.12
2023-05-04T06:40:10.508Z,200.30
2023-05-04T06:41:10.328Z,203.77
2023-05-04T06:42:10.401Z,203.33
2023-05-04T06:43:10.380Z,276.36
2023-05-04T06:44:10.426Z,262.62
2023-05-04T06:45:10.392Z,239.84
2023-05-04T06:46:10.462Z,232.91
2023-05-04T06:47:10.481Z,230.67
2023-05-04T06:48:10.558Z,231.15
2023-05-04T06:49:10.483Z,230.91
2023-05-04T06:50:10.492Z,231.98
2023-05-04T06:51:10.530Z,234.34
2023-05-04T06:52:10.649Z,236.65
2023-05-04T06:53:10.708Z,237.90
2023-05-04T06:54:10.722Z,240.71
2023-05-04T06:55:10.755Z,244.97
2023-05-04T06:56:10.731Z,247.50
2023-05-04T06:57:10.750Z,249.47
2023-05-04T06:58:10.765Z,250.00
2023-05-04T06:59:10.785Z,249.48
2023-05-04T07:00:10.811Z,250.00
2023-05-04T07:01:10.839Z,249.53
2023-05-04T07:02:10.848Z,249.55
2023-05-04T07:03:10.893Z,249.89
2023-05-04T07:04:10.779Z,249.65
2023-05-04T07:05:10.825Z,250.00
2023-05-04T07:06:10.937Z,249.22
2023-05-04T07:07:10.987Z,248.99
2023-05-04T07:08:11.034Z,250.00
2023-05-04T07:09:11.104Z,250.00
2023-05-04T07:10:11.108Z,249.30
2023-05-04T07:11:11.141Z,250.00
2023-05-04T07:12:11.230Z,249.15
2023-05-04T07:13:11.288Z,249.24
2023-05-04T07:14:11.358Z,249.41
2023-05-04T07:15:11.405Z,249.47
2023-05-04T07:16:11.486Z,249.52
2023-05-04T07:17:11.519Z,248.71
2023-05-04T07:18:11.589Z,248.87
2023-05-04T07:19:11.605Z,250.15
2023-05-04T07:20:11.711Z,249.90
2023-05-04T07:22:11.723Z,248.34
2023-05-04T07:23:11.698Z,249.32
2023-05-04T07:24:11.703Z,251.32
2023-05-04T07:25:11.701Z,253.99
2023-05-04T07:26:11.720Z,259.80
2023-05-04T07:27:11.673Z,250.15
2023-05-04T07:28:11.701Z,249.78
2023-05-04T07:29:11.699Z,248.46
2023-05-04T07:30:11.676Z,249.51
2023-05-04T07:31:11.691Z,250.00
2023-05-04T07:32:11.879Z,249.45
2023-05-04T07:33:11.851Z,249.18
2023-05-04T07:34:11.879Z,250.00
2023-05-04T07:35:11.902Z,249.93
2023-05-04T07:36:11.967Z,250.00
2023-05-04T07:37:12.052Z,248.44
2023-05-04T07:38:12.214Z,248.65
2023-05-04T07:39:12.109Z,250.14
2023-05-04T07:40:12.175Z,249.98
2023-05-04T07:41:12.199Z,249.04
2023-05-04T07:42:12.313Z,249.68
2023-05-04T07:43:12.655Z,249.28
2023-05-04T07:44:12.318Z,248.67
2023-05-04T07:45:12.396Z,250.00
2023-05-04T07:46:12.482Z,247.95
2023-05-04T07:47:12.550Z,248.11
2023-05-04T07:48:12.622Z,246.78
2023-05-04T07:49:12.550Z,203.33
2023-05-04T07:50:12.601Z,166.67
2023-05-04T07:51:12.674Z,129.84
2023-05-04T07:52:12.724Z,85.71
2023-05-04T07:53:13.150Z,60.47
2023-05-04T07:54:12.717Z,47.40
2023-05-04T07:55:12.736Z,32.65
2023-05-04T07:56:12.761Z,25.00
2023-05-04T07:57:12.811Z,26.60
2023-05-04T07:58:12.806Z,28.03
2023-05-04T07:59:12.835Z,33.67
2023-05-04T08:00:12.874Z,35.50
2023-05-04T08:01:12.919Z,49.81
2023-05-04T08:02:12.979Z,59.96
2023-05-04T08:03:12.987Z,67.81
2023-05-04T08:04:12.970Z,69.56
2023-05-04T08:05:13.023Z,74.31
2023-05-04T08:06:13.036Z,79.19
2023-05-04T08:07:13.040Z,80.55
2023-05-04T08:08:13.048Z,85.23
2023-05-04T08:09:13.099Z,89.07
2023-05-04T08:10:13.188Z,94.22
2023-05-04T08:11:20.368Z,97.86
2023-05-04T08:12:14.311Z,98.00
2023-05-04T08:13:13.299Z,99.11
2023-05-04T08:14:13.259Z,101.18
2023-05-04T08:15:13.259Z,106.12
2023-05-04T08:16:13.227Z,113.26
2023-05-04T08:17:13.225Z,118.88
2023-05-04T08:18:13.202Z,121.01
2023-05-04T08:19:13.223Z,124.46
2023-05-04T08:20:13.385Z,127.63
2023-05-04T08:21:13.264Z,130.24
2023-05-04T08:22:13.259Z,135.24
2023-05-04T08:23:13.305Z,140.13
2023-05-04T08:24:13.353Z,143.39
2023-05-04T08:25:13.414Z,146.47
2023-05-04T08:26:13.510Z,150.12
2023-05-04T08:27:13.538Z,152.74
2023-05-04T08:28:13.585Z,156.11
2023-05-04T08:29:13.647Z,157.96
2023-05-04T08:30:13.704Z,162.09
2023-05-04T08:31:13.962Z,164.23
2023-05-04T08:32:13.794Z,166.53
2023-05-04T08:33:13.824Z,167.71
2023-05-04T08:34:13.863Z,169.90
2023-05-04T08:35:13.896Z,173.83
2023-05-04T08:36:13.958Z,186.15
2023-05-04T08:37:13.986Z,194.39
2023-05-04T08:38:14.001Z,200.09
2023-05-04T08:39:14.021Z,198.09
2023-05-04T08:40:14.087Z,198.63
2023-05-04T08:41:14.104Z,198.69
2023-05-04T08:42:14.162Z,199.39
2023-05-04T08:43:14.184Z,198.10
2023-05-04T08:44:14.214Z,199.95
2023-05-04T08:45:14.324Z,200.97
2023-05-04T08:46:14.317Z,201.60
2023-05-04T08:47:14.356Z,203.59
2023-05-04T08:48:14.365Z,204.09
2023-05-04T08:49:14.429Z,203.75
2023-05-04T08:50:14.438Z,205.96
2023-05-04T08:51:14.485Z,205.90
2023-05-04T08:52:14.531Z,206.60
2023-05-04T08:53:14.535Z,208.73
2023-05-04T08:54:14.588Z,213.48
2023-05-04T08:55:14.619Z,218.02
2023-05-04T08:56:14.654Z,219.33
2023-05-04T08:57:14.711Z,221.57
2023-05-04T08:58:14.752Z,223.06
2023-05-04T08:59:14.776Z,226.05
2023-05-04T09:00:14.808Z,226.25
2023-05-04T09:01:14.867Z,228.35
2023-05-04T09:02:14.851Z,231.57
2023-05-04T09:03:14.959Z,232.26
2023-05-04T09:04:14.905Z,233.52
2023-05-04T09:05:14.988Z,234.90
2023-05-04T09:06:14.974Z,237.24
2023-05-04T09:07:15.018Z,239.40
2023-05-04T09:08:15.065Z,242.65
2023-05-04T09:09:15.115Z,245.64
2023-05-04T09:10:15.139Z,247.39
2023-05-04T09:11:15.144Z,248.36
2023-05-04T09:12:15.156Z,249.40
2023-05-04T09:13:15.726Z,249.42
2023-05-04T09:14:15.226Z,249.94
2023-05-04T09:15:15.273Z,248.93
2023-05-04T09:16:15.341Z,249.74
2023-05-04T09:17:15.311Z,250.00
2023-05-04T09:18:15.354Z,249.72
2023-05-04T09:19:15.343Z,249.85
2023-05-04T09:20:15.391Z,249.84
2023-05-04T09:21:15.370Z,249.71
2023-05-04T09:22:15.378Z,250.00
2023-05-04T09:23:15.427Z,249.87
2023-05-04T09:24:15.443Z,250.00
2023-05-04T09:25:15.455Z,250.03
2023-05-04T09:26:15.508Z,250.00
2023-05-04T09:27:15.470Z,250.00
2023-05-04T09:28:15.515Z,249.87
2023-05-04T09:29:15.563Z,249.75
2023-05-04T09:30:15.566Z,250.00
2023-05-04T09:31:15.595Z,250.00
2023-05-04T09:32:15.596Z,248.52
2023-05-04T09:33:15.616Z,249.88
2023-05-04T09:34:15.742Z,250.00
2023-05-04T09:35:29.169Z,249.79
2023-05-04T09:36:16.639Z,249.89
2023-05-04T09:37:15.617Z,250.20
2023-05-04T09:38:15.681Z,251.35
2023-05-04T09:39:15.716Z,252.91
2023-05-04T09:40:15.638Z,257.14
2023-05-04T09:41:15.637Z,250.00
2023-05-04T09:42:15.597Z,253.84
2023-05-04T09:43:15.716Z,248.54
2023-05-04T09:44:15.551Z,248.87
2023-05-04T09:45:15.606Z,249.87
2023-05-04T09:46:15.639Z,250.00
2023-05-04T09:47:15.574Z,246.05
2023-05-04T09:48:15.555Z,250.00
2023-05-04T09:49:15.559Z,247.29
2023-05-04T09:50:17.589Z,244.55
2023-05-04T09:51:15.549Z,242.88
2023-05-04T09:52:15.526Z,239.20
2023-05-04T09:53:15.515Z,230.85
2023-05-04T09:54:15.520Z,219.92
2023-05-04T09:55:15.526Z,209.44
2023-05-04T09:56:15.513Z,193.85
2023-05-04T09:57:15.648Z,183.96
2023-05-04T09:58:15.494Z,183.01
2023-05-04T09:59:15.499Z,177.56
2023-05-04T10:00:15.476Z,154.73
2023-05-04T10:01:15.477Z,143.72
2023-05-04T10:02:22.705Z,138.11
2023-05-04T10:03:16.480Z,131.79
2023-05-04T10:04:15.429Z,125.25
2023-05-04T10:05:15.602Z,133.19
2023-05-04T10:06:15.474Z,132.63
2023-05-04T10:07:15.424Z,122.45
2023-05-04T10:08:15.475Z,88.47
2023-05-04T10:09:15.445Z,91.02
2023-05-04T10:10:15.427Z,75.65
2023-05-04T10:11:15.438Z,89.45
2023-05-04T10:12:15.421Z,87.05
2023-05-04T10:13:15.512Z,86.49
2023-05-04T10:14:15.430Z,82.54
2023-05-04T10:15:15.468Z,72.17
2023-05-04T10:16:15.540Z,79.81
2023-05-04T10:17:15.573Z,73.22
2023-05-04T10:18:15.619Z,69.85
2023-05-04T10:19:15.686Z,64.17
2023-05-04T10:20:15.741Z,70.79
2023-05-04T10:21:15.774Z,67.34
2023-05-04T10:22:15.940Z,69.14
2023-05-04T10:23:15.923Z,59.08
2023-05-04T10:24:15.973Z,54.53
2023-05-04T10:25:16.043Z,48.94
2023-05-04T10:26:16.151Z,51.58
2023-05-04T10:27:16.154Z,47.22
2023-05-04T10:28:16.226Z,32.10
2023-05-04T10:29:16.256Z,32.09
2023-05-04T10:30:16.360Z,36.77
2023-05-04T10:31:16.411Z,36.15
2023-05-04T10:32:16.456Z,29.40
2023-05-04T10:33:16.516Z,32.22
2023-05-04T10:34:16.571Z,30.28
2023-05-04T10:35:16.656Z,30.18
2023-05-04T10:36:16.669Z,40.68
2023-05-04T10:37:16.895Z,34.43
2023-05-04T10:38:16.805Z,34.79
2023-05-04T10:39:16.841Z,41.94
2023-05-04T10:40:16.926Z,46.37
2023-05-04T10:41:16.974Z,49.53
2023-05-04T10:42:17.066Z,55.85
2023-05-04T10:43:17.089Z,57.88
2023-05-04T10:44:17.135Z,59.99
2023-05-04T10:45:17.171Z,58.70
2023-05-04T10:46:17.252Z,56.45
2023-05-04T10:47:17.280Z,57.21
2023-05-04T10:48:17.298Z,57.17
2023-05-04T10:49:17.350Z,58.01
2023-05-04T10:50:17.393Z,59.19
2023-05-04T10:51:17.416Z,60.52
2023-05-04T10:52:17.463Z,59.77
2023-05-04T10:53:17.491Z,58.00
2023-05-04T10:54:17.541Z,55.79
2023-05-04T10:55:17.595Z,54.16
2023-05-04T10:56:17.618Z,52.95
2023-05-04T10:57:17.684Z,52.53
2023-05-04T10:58:17.720Z,50.51
2023-05-04T10:59:18.836Z,50.87
2023-05-04T11:00:17.803Z,51.14
2023-05-04T11:01:17.935Z,52.07
2023-05-04T11:02:17.935Z,50.75
2023-05-04T11:03:17.994Z,48.80
2023-05-04T11:04:17.955Z,49.28
2023-05-04T11:05:18.002Z,46.48
2023-05-04T11:06:19.532Z,48.25
2023-05-04T11:07:18.018Z,49.07
2023-05-04T11:08:18.065Z,49.58
2023-05-04T11:09:18.061Z,49.50
2023-05-04T11:10:18.045Z,48.68
2023-05-04T11:11:18.018Z,49.64
2023-05-04T11:12:17.986Z,47.75
2023-05-04T11:13:18.154Z,47.95
2023-05-04T11:14:17.981Z,46.62
2023-05-04T11:15:17.976Z,50.24
2023-05-04T11:16:18.050Z,52.01
2023-05-04T11:18:19.106Z,51.79
2023-05-04T11:19:17.955Z,51.89
2023-05-04T11:20:17.946Z,51.39
2023-05-04T11:21:17.926Z,51.30
2023-05-04T11:22:17.945Z,51.60
2023-05-04T11:23:17.951Z,52.10
2023-05-04T11:24:17.942Z,48.35
2023-05-04T11:25:17.915Z,47.01
2023-05-04T11:26:17.943Z,46.08
2023-05-04T11:27:18.369Z,42.59
2023-05-04T11:28:18.215Z,41.10
2023-05-04T11:29:17.894Z,38.41
2023-05-04T11:30:17.898Z,38.08
2023-05-04T11:31:17.955Z,34.76
2023-05-04T11:32:18.126Z,52.46
2023-05-04T11:33:18.244Z,60.65
2023-05-04T11:34:17.861Z,66.35
2023-05-04T11:35:17.841Z,73.25
2023-05-04T11:36:17.865Z,77.09
2023-05-04T11:37:17.920Z,80.12
2023-05-04T11:38:17.872Z,80.51
2023-05-04T11:39:17.808Z,81.36
2023-05-04T11:40:17.806Z,82.74
2023-05-04T11:41:17.821Z,80.87
2023-05-04T11:42:17.826Z,78.65
2023-05-04T11:43:17.782Z,76.15
2023-05-04T11:44:18.245Z,74.16
2023-05-04T11:45:17.796Z,72.83
2023-05-04T11:46:17.829Z,72.20
2023-05-04T11:47:17.778Z,70.05
2023-05-04T11:48:18.724Z,63.75
2023-05-04T11:49:17.781Z,62.40
2023-05-04T11:50:17.766Z,59.63
2023-05-04T11:51:17.773Z,58.39
2023-05-04T11:52:17.732Z,55.95
2023-05-04T11:53:17.731Z,55.41
2023-05-04T11:54:17.787Z,53.19
2023-05-04T11:55:17.832Z,49.93
2023-05-04T11:56:17.961Z,48.70
2023-05-04T11:57:17.921Z,47.76
2023-05-04T11:58:17.933Z,46.12
2023-05-04T11:59:17.941Z,46.84
2023-05-04T12:00:17.992Z,45.95
2023-05-04T12:01:18.007Z,42.01
2023-05-04T12:02:18.056Z,43.36
2023-05-04T12:03:18.202Z,42.47
2023-05-04T12:04:18.145Z,42.43
2023-05-04T12:05:18.206Z,40.36
2023-05-04T12:06:18.195Z,41.41
2023-05-04T12:07:18.197Z,38.98
2023-05-04T12:08:18.268Z,33.01
2023-05-04T12:09:18.307Z,30.55
2023-05-04T12:10:18.331Z,30.02
2023-05-04T12:11:18.358Z,32.85
2023-05-04T12:12:18.402Z,29.23
2023-05-04T12:13:18.472Z,30.51
2023-05-04T12:14:18.771Z,33.08
2023-05-04T12:15:18.487Z,31.35
2023-05-04T12:16:18.583Z,30.65
2023-05-04T12:17:18.533Z,31.01
2023-05-04T12:18:18.567Z,24.01
2023-05-04T12:19:18.582Z,24.96
2023-05-04T12:20:18.669Z,24.38
2023-05-04T12:21:18.682Z,24.96
2023-05-04T12:22:18.659Z,25.73
2023-05-04T12:23:19.162Z,25.13
2023-05-04T12:24:18.760Z,24.83
2023-05-04T12:25:18.723Z,22.92
2023-05-04T12:26:19.889Z,23.38
2023-05-04T12:27:18.823Z,27.15
2023-05-04T12:28:18.861Z,25.17
2023-05-04T12:29:18.866Z,26.13
2023-05-04T12:30:18.881Z,30.01
2023-05-04T12:31:18.931Z,29.69
2023-05-04T12:32:18.914Z,30.20
2023-05-04T12:33:18.945Z,33.57
2023-05-04T12:34:19.002Z,36.94
2023-05-04T12:35:19.036Z,35.17
2023-05-04T12:36:19.073Z,36.92
2023-05-04T12:37:19.089Z,37.10
2023-05-04T12:38:19.133Z,39.71
2023-05-04T12:39:19.191Z,43.15
2023-05-04T12:40:28.378Z,48.19
2023-05-04T12:41:20.169Z,48.24
2023-05-04T12:42:19.165Z,48.57
2023-05-04T12:43:20.816Z,49.40
2023-05-04T12:44:19.157Z,51.02
2023-05-04T12:45:19.178Z,56.13
2023-05-04T12:46:19.180Z,57.23
2023-05-04T12:47:19.140Z,60.17
2023-05-04T12:48:19.122Z,60.42